Weather at Acadiana Regional Airport

Public forecast

Using degrees Fahrenheit for public forecast. Weather courtesy of forecast.io.

Current aviation weather report (METAR) for Acadiana Regional Airport

2024/07/25 18:53 (retrieved 60 minutes ago)

KARA 251853Z 18006KT 10SM FEW028 31/25 A3013 RMK AO2 LTG DSNT W AND NW SLP201 T03110250

Aviation forecast (TAF) for Acadiana Regional Airport

2024/07/25 19:03 Ammendment (retrieved 50 minutes ago)

AMD KARA 251840Z 2519/2618 VRB05KT P6SM VCSH SCT020 BKN060 TEMPO 2519/2522 VRB12G24KT 3SM TSRA BR OVC015CB FM260000 VRB04KT P6SM SCT035 BKN050 FM261200 04006KT 4SM BR VCSH OVC025